< Typhoon 199907 1999 Season Typhoon 199909 >
Typhoon 199908 (PAUL)
General InformationDetailed Track InformationTrack Information on Google MapsList of All Images || Disaster Info.ResourceGoogle EarthGE AnimationAtom FeedGeoJSON
Detalied Best Track Wind (Time Zone = UTC)
Year Month Day Hour Lat. Long. Wind (kt) Gust (kt) Direc. of Major Storm Axis Radius of Major Storm Axis (nm) Radius of Minor Storm Axis (nm) Direc. of Major Gale Axis Radius of Major Gale Axis (nm) Radius of Minor Gale Axis (nm) Image
1999 8 3 00 19.0 140.0 0 0 - - - - - - Image
1999 8 3 06 19.8 140.0 0 0 - - - - - - Image
1999 8 3 12 20.9 139.1 0 0 - - - - - - Image
1999 8 3 18 21.0 138.9 0 0 - - - - - - Image
1999 8 4 00 22.1 138.9 0 0 - - - - - - Image
1999 8 4 06 24.6 137.3 0 0 - - - - - - Image
1999 8 4 12 25.5 136.1 35 0 - - - E 250 150 Image
1999 8 4 18 26.3 134.3 40 0 - - - E 300 220 Image
1999 8 5 00 27.0 133.1 40 0 - - - E 400 220 Image
1999 8 5 03 27.0 132.6 45 0 - - - E 400 200 Image
1999 8 5 06 27.0 132.3 45 0 - - - E 400 200 Image
1999 8 5 09 27.0 132.2 45 0 - - - E 425 200 Image
1999 8 5 12 27.0 132.2 45 0 - - - E 450 200 Image
1999 8 5 15 27.1 132.6 45 0 - - - E 400 200 Image
1999 8 5 18 27.2 133.0 45 0 - - - E 375 200 Image
1999 8 5 21 27.5 133.5 45 0 - - - E 375 200 Image
1999 8 6 00 27.9 133.8 45 0 - - - E 375 200 Image
1999 8 6 03 28.9 133.8 40 0 - - - E 300 200 Image
1999 8 6 06 30.0 133.1 40 0 - - - E 300 200 Image
1999 8 6 09 30.6 132.3 40 0 - - - E 250 150 Image
1999 8 6 12 30.7 131.9 35 0 - - - E 200 100 Image
1999 8 6 15 30.9 130.6 35 0 - - - E 200 100 Image
1999 8 6 18 31.4 129.7 35 0 - - - E 200 100 Image
1999 8 6 21 31.8 129.3 35 0 - - - E 150 80 Image
1999 8 7 00 32.6 128.8 35 0 - - - E 150 80 Image
1999 8 7 03 32.9 127.9 0 0 - - - - - - Image
1999 8 7 06 33.2 126.9 0 0 - - - - - - Image
1999 8 7 12 33.3 125.1 0 0 - - - - - - Image
1999 8 7 18 33.3 123.2 0 0 - - - - - - Image
1999 8 8 00 33.3 122.9 0 0 - - - - - - Image
1999 8 8 06 33.4 122.1 0 0 - - - - - - Image
1999 8 8 12 34.0 121.5 0 0 - - - - - - Image
1999 8 8 18 34.5 120.9 0 0 - - - - - - Image
1999 8 9 00 34.7 120.3 0 0 - - - - - - Image
1999 8 9 06 34.7 119.9 0 0 - - - - - - Image
Japan Meteorological Agency Best Track Data | Correction Date : 2005-03-01
< Typhoon 199907 1999 Season Typhoon 199909 >

Help